sensor_id;sensor_type;location;lat;lon;timestamp;P1;durP1;ratioP1;P2;durP2;ratioP2
291;SDS011;23311;48.776;9.162;2022-10-17T00:01:03;4.03;;;3.83;;
291;SDS011;23311;48.776;9.162;2022-10-17T00:03:32;4.83;;;4.53;;
291;SDS011;23311;48.776;9.162;2022-10-17T00:06:04;7.27;;;5.20;;
291;SDS011;23311;48.776;9.162;2022-10-17T00:08:34;5.77;;;4.40;;
291;SDS011;23311;48.776;9.162;2022-10-17T00:11:04;5.80;;;3.40;;
291;SDS011;23311;48.776;9.162;2022-10-17T00:13:33;7.87;;;4.80;;
291;SDS011;23311;48.776;9.162;2022-10-17T00:16:02;4.90;;;4.47;;
291;SDS011;23311;48.776;9.162;2022-10-17T00:18:30;4.80;;;3.67;;
291;SDS011;23311;48.776;9.162;2022-10-17T00:20:58;5.30;;;4.00;;
291;SDS011;23311;48.776;9.162;2022-10-17T00:23:26;5.70;;;4.57;;
291;SDS011;23311;48.776;9.162;2022-10-17T00:26:00;6.20;;;4.10;;
291;SDS011;23311;48.776;9.162;2022-10-17T00:28:31;4.77;;;4.47;;
291;SDS011;23311;48.776;9.162;2022-10-17T00:31:00;6.50;;;4.40;;
291;SDS011;23311;48.776;9.162;2022-10-17T00:33:30;5.63;;;3.73;;
291;SDS011;23311;48.776;9.162;2022-10-17T00:36:03;4.43;;;4.13;;
291;SDS011;23311;48.776;9.162;2022-10-17T00:38:33;3.80;;;3.60;;
291;SDS011;23311;48.776;9.162;2022-10-17T00:41:02;5.43;;;3.60;;
291;SDS011;23311;48.776;9.162;2022-10-17T00:46:18;6.20;;;4.60;;
291;SDS011;23311;48.776;9.162;2022-10-17T00:48:47;4.17;;;3.73;;
291;SDS011;23311;48.776;9.162;2022-10-17T00:51:16;8.53;;;3.77;;
291;SDS011;23311;48.776;9.162;2022-10-17T00:53:46;5.97;;;4.00;;
291;SDS011;23311;48.776;9.162;2022-10-17T00:56:18;7.13;;;3.63;;
291;SDS011;23311;48.776;9.162;2022-10-17T00:58:47;3.63;;;3.50;;
291;SDS011;23311;48.776;9.162;2022-10-17T01:01:15;6.10;;;4.23;;
291;SDS011;23311;48.776;9.162;2022-10-17T01:03:47;4.20;;;4.00;;
291;SDS011;23311;48.776;9.162;2022-10-17T01:06:17;6.10;;;4.10;;
291;SDS011;23311;48.776;9.162;2022-10-17T01:08:45;5.63;;;3.70;;
291;SDS011;23311;48.776;9.162;2022-10-17T01:11:19;6.17;;;4.70;;
291;SDS011;23311;48.776;9.162;2022-10-17T01:13:54;4.17;;;3.73;;
291;SDS011;23311;48.776;9.162;2022-10-17T01:16:31;5.23;;;3.43;;
291;SDS011;23311;48.776;9.162;2022-10-17T01:19:12;7.00;;;3.70;;
291;SDS011;23311;48.776;9.162;2022-10-17T01:22:04;7.20;;;3.83;;
291;SDS011;23311;48.776;9.162;2022-10-17T01:24:47;6.33;;;3.70;;
291;SDS011;23311;48.776;9.162;2022-10-17T01:27:33;4.17;;;3.63;;
291;SDS011;23311;48.776;9.162;2022-10-17T01:33:31;4.70;;;4.07;;
291;SDS011;23311;48.776;9.162;2022-10-17T01:36:08;4.73;;;3.80;;
291;SDS011;23311;48.776;9.162;2022-10-17T01:38:42;7.60;;;3.57;;
291;SDS011;23311;48.776;9.162;2022-10-17T01:41:14;4.00;;;3.90;;
291;SDS011;23311;48.776;9.162;2022-10-17T01:43:52;4.60;;;4.17;;
291;SDS011;23311;48.776;9.162;2022-10-17T01:46:25;6.37;;;4.47;;
291;SDS011;23311;48.776;9.162;2022-10-17T01:48:59;5.17;;;3.90;;
291;SDS011;23311;48.776;9.162;2022-10-17T01:51:29;4.93;;;3.63;;
291;SDS011;23311;48.776;9.162;2022-10-17T01:54:03;4.17;;;3.40;;
291;SDS011;23311;48.776;9.162;2022-10-17T01:56:35;4.67;;;3.93;;
291;SDS011;23311;48.776;9.162;2022-10-17T01:59:08;4.60;;;4.30;;
291;SDS011;23311;48.776;9.162;2022-10-17T02:01:39;7.20;;;3.90;;
291;SDS011;23311;48.776;9.162;2022-10-17T02:04:11;4.77;;;3.60;;
291;SDS011;23311;48.776;9.162;2022-10-17T02:06:39;3.50;;;3.30;;
291;SDS011;23311;48.776;9.162;2022-10-17T02:09:17;7.23;;;3.87;;
291;SDS011;23311;48.776;9.162;2022-10-17T02:12:01;4.53;;;3.97;;
291;SDS011;23311;48.776;9.162;2022-10-17T02:14:40;5.23;;;3.97;;
291;SDS011;23311;48.776;9.162;2022-10-17T02:17:20;5.20;;;4.50;;
291;SDS011;23311;48.776;9.162;2022-10-17T02:20:00;5.10;;;4.80;;
291;SDS011;23311;48.776;9.162;2022-10-17T02:22:37;9.07;;;7.83;;
291;SDS011;23311;48.776;9.162;2022-10-17T02:25:08;9.50;;;6.20;;
291;SDS011;23311;48.776;9.162;2022-10-17T02:27:42;8.30;;;6.00;;
291;SDS011;23311;48.776;9.162;2022-10-17T02:30:18;6.70;;;5.20;;
291;SDS011;23311;48.776;9.162;2022-10-17T02:32:51;11.30;;;5.30;;
291;SDS011;23311;48.776;9.162;2022-10-17T02:35:26;9.23;;;4.80;;
291;SDS011;23311;48.776;9.162;2022-10-17T02:37:57;7.10;;;5.37;;
291;SDS011;23311;48.776;9.162;2022-10-17T02:40:27;6.27;;;4.80;;
291;SDS011;23311;48.776;9.162;2022-10-17T02:42:57;7.53;;;4.50;;
291;SDS011;23311;48.776;9.162;2022-10-17T02:45:26;4.67;;;4.37;;
291;SDS011;23311;48.776;9.162;2022-10-17T02:48:01;11.37;;;4.50;;
291;SDS011;23311;48.776;9.162;2022-10-17T02:50:35;6.60;;;4.57;;
291;SDS011;23311;48.776;9.162;2022-10-17T02:53:10;10.53;;;5.20;;
291;SDS011;23311;48.776;9.162;2022-10-17T02:55:42;6.60;;;5.40;;
291;SDS011;23311;48.776;9.162;2022-10-17T02:58:17;5.30;;;4.27;;
291;SDS011;23311;48.776;9.162;2022-10-17T03:00:48;7.27;;;5.07;;
291;SDS011;23311;48.776;9.162;2022-10-17T03:03:18;6.10;;;4.77;;
291;SDS011;23311;48.776;9.162;2022-10-17T03:05:49;7.20;;;5.20;;
291;SDS011;23311;48.776;9.162;2022-10-17T03:08:18;8.60;;;4.87;;
291;SDS011;23311;48.776;9.162;2022-10-17T03:10:46;7.20;;;4.67;;
291;SDS011;23311;48.776;9.162;2022-10-17T03:13:15;6.33;;;4.73;;
291;SDS011;23311;48.776;9.162;2022-10-17T03:15:43;6.20;;;4.40;;
291;SDS011;23311;48.776;9.162;2022-10-17T03:18:11;9.07;;;5.60;;
291;SDS011;23311;48.776;9.162;2022-10-17T03:20:39;10.10;;;4.53;;
291;SDS011;23311;48.776;9.162;2022-10-17T03:23:09;5.57;;;5.10;;
291;SDS011;23311;48.776;9.162;2022-10-17T03:25:37;3.97;;;3.80;;
291;SDS011;23311;48.776;9.162;2022-10-17T03:28:05;7.73;;;4.50;;
291;SDS011;23311;48.776;9.162;2022-10-17T03:30:33;4.87;;;4.37;;
291;SDS011;23311;48.776;9.162;2022-10-17T03:33:04;4.80;;;4.27;;
291;SDS011;23311;48.776;9.162;2022-10-17T03:35:32;4.30;;;3.63;;
291;SDS011;23311;48.776;9.162;2022-10-17T03:38:00;5.10;;;4.17;;
291;SDS011;23311;48.776;9.162;2022-10-17T03:40:30;4.63;;;4.20;;
291;SDS011;23311;48.776;9.162;2022-10-17T03:42:58;7.87;;;5.00;;
291;SDS011;23311;48.776;9.162;2022-10-17T03:45:26;5.43;;;3.90;;
291;SDS011;23311;48.776;9.162;2022-10-17T03:47:54;6.03;;;4.37;;
291;SDS011;23311;48.776;9.162;2022-10-17T03:50:22;7.10;;;4.43;;
291;SDS011;23311;48.776;9.162;2022-10-17T03:52:50;5.17;;;4.60;;
291;SDS011;23311;48.776;9.162;2022-10-17T03:55:18;5.70;;;4.57;;
291;SDS011;23311;48.776;9.162;2022-10-17T03:57:48;4.10;;;3.90;;
291;SDS011;23311;48.776;9.162;2022-10-17T04:00:16;5.93;;;4.50;;
291;SDS011;23311;48.776;9.162;2022-10-17T04:02:44;6.10;;;4.30;;
291;SDS011;23311;48.776;9.162;2022-10-17T04:05:12;5.80;;;4.60;;
291;SDS011;23311;48.776;9.162;2022-10-17T04:07:40;5.37;;;4.40;;
291;SDS011;23311;48.776;9.162;2022-10-17T04:10:08;5.70;;;4.43;;
291;SDS011;23311;48.776;9.162;2022-10-17T04:12:36;6.27;;;4.50;;
291;SDS011;23311;48.776;9.162;2022-10-17T04:15:06;5.00;;;4.70;;
291;SDS011;23311;48.776;9.162;2022-10-17T04:17:35;6.07;;;5.77;;
291;SDS011;23311;48.776;9.162;2022-10-17T04:20:04;9.10;;;5.13;;
291;SDS011;23311;48.776;9.162;2022-10-17T04:22:32;5.80;;;4.63;;
291;SDS011;23311;48.776;9.162;2022-10-17T04:25:01;5.60;;;4.33;;
291;SDS011;23311;48.776;9.162;2022-10-17T04:27:29;5.80;;;5.30;;
291;SDS011;23311;48.776;9.162;2022-10-17T04:29:57;10.47;;;5.13;;
291;SDS011;23311;48.776;9.162;2022-10-17T04:32:26;5.83;;;4.60;;
291;SDS011;23311;48.776;9.162;2022-10-17T04:34:54;5.47;;;5.03;;
291;SDS011;23311;48.776;9.162;2022-10-17T04:37:23;5.87;;;4.67;;
291;SDS011;23311;48.776;9.162;2022-10-17T04:39:51;4.90;;;4.40;;
291;SDS011;23311;48.776;9.162;2022-10-17T04:42:19;4.63;;;4.27;;
291;SDS011;23311;48.776;9.162;2022-10-17T04:44:47;5.73;;;4.60;;
291;SDS011;23311;48.776;9.162;2022-10-17T04:47:15;4.87;;;4.00;;
291;SDS011;23311;48.776;9.162;2022-10-17T04:49:44;5.57;;;3.90;;
291;SDS011;23311;48.776;9.162;2022-10-17T04:52:12;4.90;;;3.97;;
291;SDS011;23311;48.776;9.162;2022-10-17T04:54:40;4.03;;;3.50;;
291;SDS011;23311;48.776;9.162;2022-10-17T04:57:08;4.70;;;4.33;;
291;SDS011;23311;48.776;9.162;2022-10-17T04:59:36;6.27;;;4.00;;
291;SDS011;23311;48.776;9.162;2022-10-17T05:02:05;4.57;;;4.27;;
291;SDS011;23311;48.776;9.162;2022-10-17T05:04:33;6.10;;;4.40;;
291;SDS011;23311;48.776;9.162;2022-10-17T05:07:02;4.90;;;4.30;;
291;SDS011;23311;48.776;9.162;2022-10-17T05:09:30;5.83;;;4.30;;
291;SDS011;23311;48.776;9.162;2022-10-17T05:11:58;6.10;;;4.20;;
291;SDS011;23311;48.776;9.162;2022-10-17T05:14:30;4.80;;;4.27;;
291;SDS011;23311;48.776;9.162;2022-10-17T05:16:58;5.77;;;4.40;;
291;SDS011;23311;48.776;9.162;2022-10-17T05:19:26;5.10;;;4.73;;
291;SDS011;23311;48.776;9.162;2022-10-17T05:21:54;5.30;;;4.43;;
291;SDS011;23311;48.776;9.162;2022-10-17T05:24:24;5.47;;;5.10;;
291;SDS011;23311;48.776;9.162;2022-10-17T05:26:52;9.60;;;4.80;;
291;SDS011;23311;48.776;9.162;2022-10-17T05:29:20;5.07;;;4.50;;
291;SDS011;23311;48.776;9.162;2022-10-17T05:31:48;5.13;;;4.37;;
291;SDS011;23311;48.776;9.162;2022-10-17T05:34:16;7.80;;;4.50;;
291;SDS011;23311;48.776;9.162;2022-10-17T05:36:45;4.77;;;4.50;;
291;SDS011;23311;48.776;9.162;2022-10-17T05:39:13;6.40;;;4.97;;
291;SDS011;23311;48.776;9.162;2022-10-17T05:41:46;6.43;;;5.70;;
291;SDS011;23311;48.776;9.162;2022-10-17T05:44:14;5.63;;;4.60;;
291;SDS011;23311;48.776;9.162;2022-10-17T05:46:42;6.33;;;5.70;;
291;SDS011;23311;48.776;9.162;2022-10-17T05:49:10;6.67;;;4.93;;
291;SDS011;23311;48.776;9.162;2022-10-17T05:51:50;6.30;;;5.33;;
291;SDS011;23311;48.776;9.162;2022-10-17T05:54:18;6.50;;;5.13;;
291;SDS011;23311;48.776;9.162;2022-10-17T05:56:51;6.97;;;5.37;;
291;SDS011;23311;48.776;9.162;2022-10-17T05:59:20;7.83;;;4.80;;
291;SDS011;23311;48.776;9.162;2022-10-17T06:01:48;7.00;;;5.60;;
291;SDS011;23311;48.776;9.162;2022-10-17T06:04:16;8.13;;;5.50;;
291;SDS011;23311;48.776;9.162;2022-10-17T06:06:44;8.30;;;5.40;;
291;SDS011;23311;48.776;9.162;2022-10-17T06:09:13;10.53;;;4.60;;
291;SDS011;23311;48.776;9.162;2022-10-17T06:11:41;8.53;;;5.07;;
291;SDS011;23311;48.776;9.162;2022-10-17T06:14:10;8.40;;;4.43;;
291;SDS011;23311;48.776;9.162;2022-10-17T06:16:38;8.23;;;4.50;;
291;SDS011;23311;48.776;9.162;2022-10-17T06:19:06;11.13;;;4.33;;
291;SDS011;23311;48.776;9.162;2022-10-17T06:21:36;8.20;;;4.63;;
291;SDS011;23311;48.776;9.162;2022-10-17T06:24:05;10.40;;;5.50;;
291;SDS011;23311;48.776;9.162;2022-10-17T06:26:33;9.43;;;5.47;;
291;SDS011;23311;48.776;9.162;2022-10-17T06:29:01;5.80;;;4.73;;
291;SDS011;23311;48.776;9.162;2022-10-17T06:31:31;7.00;;;5.90;;
291;SDS011;23311;48.776;9.162;2022-10-17T06:33:59;8.27;;;4.60;;
291;SDS011;23311;48.776;9.162;2022-10-17T06:36:27;4.90;;;4.00;;
291;SDS011;23311;48.776;9.162;2022-10-17T06:38:55;6.93;;;4.20;;
291;SDS011;23311;48.776;9.162;2022-10-17T06:41:23;8.63;;;5.33;;
291;SDS011;23311;48.776;9.162;2022-10-17T06:43:51;6.77;;;4.53;;
291;SDS011;23311;48.776;9.162;2022-10-17T06:46:19;5.40;;;5.10;;
291;SDS011;23311;48.776;9.162;2022-10-17T06:48:49;7.03;;;5.20;;
291;SDS011;23311;48.776;9.162;2022-10-17T06:51:17;8.33;;;5.53;;
291;SDS011;23311;48.776;9.162;2022-10-17T06:53:45;8.83;;;5.60;;
291;SDS011;23311;48.776;9.162;2022-10-17T06:56:13;9.03;;;5.50;;
291;SDS011;23311;48.776;9.162;2022-10-17T06:58:41;6.37;;;5.43;;
291;SDS011;23311;48.776;9.162;2022-10-17T07:01:10;6.87;;;5.40;;
291;SDS011;23311;48.776;9.162;2022-10-17T07:03:39;5.07;;;4.17;;
291;SDS011;23311;48.776;9.162;2022-10-17T07:06:10;6.17;;;5.33;;
291;SDS011;23311;48.776;9.162;2022-10-17T07:08:41;7.77;;;4.57;;
291;SDS011;23311;48.776;9.162;2022-10-17T07:11:10;8.33;;;4.40;;
291;SDS011;23311;48.776;9.162;2022-10-17T07:13:39;6.40;;;4.90;;
291;SDS011;23311;48.776;9.162;2022-10-17T07:16:08;6.80;;;4.20;;
291;SDS011;23311;48.776;9.162;2022-10-17T07:18:37;4.20;;;3.23;;
291;SDS011;23311;48.776;9.162;2022-10-17T07:21:06;6.70;;;3.93;;
291;SDS011;23311;48.776;9.162;2022-10-17T07:23:36;3.83;;;3.50;;
291;SDS011;23311;48.776;9.162;2022-10-17T07:26:05;5.90;;;3.70;;
291;SDS011;23311;48.776;9.162;2022-10-17T07:28:34;5.40;;;3.33;;
291;SDS011;23311;48.776;9.162;2022-10-17T07:31:05;4.03;;;2.80;;
291;SDS011;23311;48.776;9.162;2022-10-17T07:33:34;5.87;;;2.80;;
291;SDS011;23311;48.776;9.162;2022-10-17T07:36:02;3.80;;;2.47;;
291;SDS011;23311;48.776;9.162;2022-10-17T07:38:32;4.37;;;3.40;;
291;SDS011;23311;48.776;9.162;2022-10-17T07:41:03;3.60;;;2.60;;
291;SDS011;23311;48.776;9.162;2022-10-17T07:43:34;3.40;;;2.90;;
291;SDS011;23311;48.776;9.162;2022-10-17T07:46:03;3.20;;;2.70;;
291;SDS011;23311;48.776;9.162;2022-10-17T07:48:31;4.40;;;2.80;;
291;SDS011;23311;48.776;9.162;2022-10-17T07:51:00;4.30;;;2.90;;
291;SDS011;23311;48.776;9.162;2022-10-17T07:53:29;4.63;;;3.50;;
291;SDS011;23311;48.776;9.162;2022-10-17T07:55:58;3.40;;;2.53;;
291;SDS011;23311;48.776;9.162;2022-10-17T07:58:27;3.07;;;2.30;;
291;SDS011;23311;48.776;9.162;2022-10-17T08:00:59;9.70;;;4.40;;
291;SDS011;23311;48.776;9.162;2022-10-17T08:03:32;3.20;;;3.00;;
291;SDS011;23311;48.776;9.162;2022-10-17T08:06:00;3.20;;;2.53;;
291;SDS011;23311;48.776;9.162;2022-10-17T08:08:30;2.60;;;2.17;;
291;SDS011;23311;48.776;9.162;2022-10-17T08:11:00;3.40;;;2.77;;
291;SDS011;23311;48.776;9.162;2022-10-17T08:13:30;4.10;;;2.97;;
291;SDS011;23311;48.776;9.162;2022-10-17T08:15:59;3.03;;;2.90;;
291;SDS011;23311;48.776;9.162;2022-10-17T08:18:27;4.10;;;3.33;;
291;SDS011;23311;48.776;9.162;2022-10-17T08:20:57;5.43;;;2.63;;
291;SDS011;23311;48.776;9.162;2022-10-17T08:23:26;6.10;;;2.23;;
291;SDS011;23311;48.776;9.162;2022-10-17T08:25:57;2.83;;;1.90;;
291;SDS011;23311;48.776;9.162;2022-10-17T08:28:25;4.40;;;2.30;;
291;SDS011;23311;48.776;9.162;2022-10-17T08:31:01;2.53;;;2.40;;
291;SDS011;23311;48.776;9.162;2022-10-17T08:33:30;4.17;;;3.37;;
291;SDS011;23311;48.776;9.162;2022-10-17T08:35:58;4.73;;;2.03;;
291;SDS011;23311;48.776;9.162;2022-10-17T08:38:27;6.53;;;2.50;;
291;SDS011;23311;48.776;9.162;2022-10-17T08:41:02;3.30;;;2.60;;
291;SDS011;23311;48.776;9.162;2022-10-17T08:43:37;4.33;;;3.00;;
291;SDS011;23311;48.776;9.162;2022-10-17T08:46:16;3.57;;;3.40;;
291;SDS011;23311;48.776;9.162;2022-10-17T08:48:46;6.67;;;3.40;;
291;SDS011;23311;48.776;9.162;2022-10-17T08:51:16;4.57;;;2.90;;
291;SDS011;23311;48.776;9.162;2022-10-17T08:53:48;8.10;;;4.43;;
291;SDS011;23311;48.776;9.162;2022-10-17T08:56:22;5.83;;;4.17;;
291;SDS011;23311;48.776;9.162;2022-10-17T08:59:12;6.23;;;3.97;;
291;SDS011;23311;48.776;9.162;2022-10-17T09:01:47;5.87;;;4.10;;
291;SDS011;23311;48.776;9.162;2022-10-17T09:04:33;4.53;;;3.20;;
291;SDS011;23311;48.776;9.162;2022-10-17T09:07:17;6.20;;;3.80;;
291;SDS011;23311;48.776;9.162;2022-10-17T09:09:52;8.57;;;3.87;;
291;SDS011;23311;48.776;9.162;2022-10-17T09:12:30;7.20;;;3.70;;
291;SDS011;23311;48.776;9.162;2022-10-17T09:15:10;5.83;;;3.50;;
291;SDS011;23311;48.776;9.162;2022-10-17T09:17:57;9.73;;;3.10;;
291;SDS011;23311;48.776;9.162;2022-10-17T09:20:29;3.77;;;3.57;;
291;SDS011;23311;48.776;9.162;2022-10-17T09:23:04;3.97;;;2.90;;
291;SDS011;23311;48.776;9.162;2022-10-17T09:25:43;7.27;;;3.30;;
291;SDS011;23311;48.776;9.162;2022-10-17T09:28:13;4.83;;;3.20;;
291;SDS011;23311;48.776;9.162;2022-10-17T09:30:45;7.13;;;3.40;;
291;SDS011;23311;48.776;9.162;2022-10-17T09:33:16;5.83;;;3.07;;
291;SDS011;23311;48.776;9.162;2022-10-17T09:36:08;8.03;;;4.03;;
291;SDS011;23311;48.776;9.162;2022-10-17T09:38:40;4.43;;;3.00;;
291;SDS011;23311;48.776;9.162;2022-10-17T09:41:14;7.80;;;3.77;;
291;SDS011;23311;48.776;9.162;2022-10-17T09:44:13;5.80;;;3.03;;
291;SDS011;23311;48.776;9.162;2022-10-17T09:49:47;4.77;;;3.43;;
291;SDS011;23311;48.776;9.162;2022-10-17T09:52:16;4.93;;;2.80;;
291;SDS011;23311;48.776;9.162;2022-10-17T09:54:48;5.57;;;3.27;;
291;SDS011;23311;48.776;9.162;2022-10-17T09:57:18;5.57;;;3.20;;
291;SDS011;23311;48.776;9.162;2022-10-17T09:59:54;4.70;;;3.00;;
291;SDS011;23311;48.776;9.162;2022-10-17T10:02:25;4.30;;;2.90;;
291;SDS011;23311;48.776;9.162;2022-10-17T10:04:59;4.90;;;3.37;;
291;SDS011;23311;48.776;9.162;2022-10-17T10:07:32;6.80;;;3.10;;
291;SDS011;23311;48.776;9.162;2022-10-17T10:10:02;7.10;;;2.80;;
291;SDS011;23311;48.776;9.162;2022-10-17T10:12:33;4.00;;;2.80;;
291;SDS011;23311;48.776;9.162;2022-10-17T10:15:06;4.00;;;2.23;;
291;SDS011;23311;48.776;9.162;2022-10-17T10:17:59;4.17;;;2.30;;
291;SDS011;23311;48.776;9.162;2022-10-17T10:20:30;2.47;;;2.00;;
291;SDS011;23311;48.776;9.162;2022-10-17T10:23:04;4.63;;;2.10;;
291;SDS011;23311;48.776;9.162;2022-10-17T10:25:33;3.80;;;2.63;;
291;SDS011;23311;48.776;9.162;2022-10-17T10:28:07;2.90;;;1.93;;
291;SDS011;23311;48.776;9.162;2022-10-17T10:30:37;3.67;;;2.57;;
291;SDS011;23311;48.776;9.162;2022-10-17T10:33:09;1.83;;;1.77;;
291;SDS011;23311;48.776;9.162;2022-10-17T10:35:39;4.00;;;2.57;;
291;SDS011;23311;48.776;9.162;2022-10-17T10:38:08;2.77;;;2.10;;
291;SDS011;23311;48.776;9.162;2022-10-17T10:40:43;3.00;;;1.93;;
291;SDS011;23311;48.776;9.162;2022-10-17T10:43:20;3.10;;;1.90;;
291;SDS011;23311;48.776;9.162;2022-10-17T10:45:50;3.30;;;1.83;;
291;SDS011;23311;48.776;9.162;2022-10-17T10:48:20;2.90;;;2.00;;
291;SDS011;23311;48.776;9.162;2022-10-17T10:50:52;3.37;;;2.60;;
291;SDS011;23311;48.776;9.162;2022-10-17T10:53:35;6.33;;;2.20;;
291;SDS011;23311;48.776;9.162;2022-10-17T10:56:12;2.80;;;2.03;;
291;SDS011;23311;48.776;9.162;2022-10-17T10:58:48;2.67;;;2.10;;
291;SDS011;23311;48.776;9.162;2022-10-17T11:01:23;3.33;;;1.93;;
291;SDS011;23311;48.776;9.162;2022-10-17T11:04:05;2.10;;;1.90;;
291;SDS011;23311;48.776;9.162;2022-10-17T11:06:45;2.20;;;1.90;;
291;SDS011;23311;48.776;9.162;2022-10-17T11:09:25;2.57;;;1.77;;
291;SDS011;23311;48.776;9.162;2022-10-17T11:12:00;3.13;;;2.00;;
291;SDS011;23311;48.776;9.162;2022-10-17T11:14:37;4.37;;;1.90;;
291;SDS011;23311;48.776;9.162;2022-10-17T11:17:12;2.27;;;1.80;;
291;SDS011;23311;48.776;9.162;2022-10-17T11:19:49;5.90;;;2.20;;
291;SDS011;23311;48.776;9.162;2022-10-17T11:22:27;4.13;;;2.53;;
291;SDS011;23311;48.776;9.162;2022-10-17T11:24:59;3.23;;;1.60;;
291;SDS011;23311;48.776;9.162;2022-10-17T11:27:31;4.70;;;1.63;;
291;SDS011;23311;48.776;9.162;2022-10-17T11:30:00;2.07;;;1.93;;
291;SDS011;23311;48.776;9.162;2022-10-17T11:32:33;5.70;;;1.43;;
291;SDS011;23311;48.776;9.162;2022-10-17T11:35:04;2.37;;;1.57;;
291;SDS011;23311;48.776;9.162;2022-10-17T11:37:42;2.47;;;1.50;;
291;SDS011;23311;48.776;9.162;2022-10-17T11:40:15;4.47;;;1.90;;
291;SDS011;23311;48.776;9.162;2022-10-17T11:42:51;2.87;;;1.70;;
291;SDS011;23311;48.776;9.162;2022-10-17T11:45:24;3.23;;;1.70;;
291;SDS011;23311;48.776;9.162;2022-10-17T11:47:57;3.83;;;1.70;;
291;SDS011;23311;48.776;9.162;2022-10-17T11:50:29;3.53;;;1.93;;
291;SDS011;23311;48.776;9.162;2022-10-17T11:53:21;4.33;;;2.60;;
291;SDS011;23311;48.776;9.162;2022-10-17T11:55:51;3.93;;;1.70;;
291;SDS011;23311;48.776;9.162;2022-10-17T11:58:27;4.40;;;3.00;;
291;SDS011;23311;48.776;9.162;2022-10-17T12:01:11;3.30;;;1.80;;
291;SDS011;23311;48.776;9.162;2022-10-17T12:04:06;3.60;;;1.77;;
291;SDS011;23311;48.776;9.162;2022-10-17T12:06:48;2.70;;;1.63;;
291;SDS011;23311;48.776;9.162;2022-10-17T12:09:31;2.90;;;1.93;;
291;SDS011;23311;48.776;9.162;2022-10-17T12:12:06;5.50;;;2.07;;
291;SDS011;23311;48.776;9.162;2022-10-17T12:14:35;1.73;;;1.37;;
291;SDS011;23311;48.776;9.162;2022-10-17T12:17:19;2.33;;;1.43;;
291;SDS011;23311;48.776;9.162;2022-10-17T12:22:53;2.67;;;1.60;;
291;SDS011;23311;48.776;9.162;2022-10-17T12:25:24;6.57;;;2.60;;
291;SDS011;23311;48.776;9.162;2022-10-17T12:28:04;4.57;;;1.87;;
291;SDS011;23311;48.776;9.162;2022-10-17T12:30:47;2.40;;;2.00;;
291;SDS011;23311;48.776;9.162;2022-10-17T12:33:18;2.40;;;1.73;;
291;SDS011;23311;48.776;9.162;2022-10-17T12:35:50;7.97;;;1.73;;
291;SDS011;23311;48.776;9.162;2022-10-17T12:38:38;5.30;;;2.17;;
291;SDS011;23311;48.776;9.162;2022-10-17T12:41:08;3.93;;;1.70;;
291;SDS011;23311;48.776;9.162;2022-10-17T12:46:42;4.07;;;1.83;;
291;SDS011;23311;48.776;9.162;2022-10-17T12:49:20;8.40;;;1.90;;
291;SDS011;23311;48.776;9.162;2022-10-17T12:52:03;6.63;;;2.13;;
291;SDS011;23311;48.776;9.162;2022-10-17T12:54:57;4.53;;;1.63;;
291;SDS011;23311;48.776;9.162;2022-10-17T12:57:42;2.30;;;1.70;;
291;SDS011;23311;48.776;9.162;2022-10-17T13:00:21;3.47;;;1.30;;
291;SDS011;23311;48.776;9.162;2022-10-17T13:02:55;5.23;;;1.77;;
291;SDS011;23311;48.776;9.162;2022-10-17T13:05:31;3.40;;;2.00;;
291;SDS011;23311;48.776;9.162;2022-10-17T13:08:02;1.73;;;1.70;;
291;SDS011;23311;48.776;9.162;2022-10-17T13:10:33;2.57;;;1.93;;
291;SDS011;23311;48.776;9.162;2022-10-17T13:13:13;2.37;;;1.57;;
291;SDS011;23311;48.776;9.162;2022-10-17T13:15:46;4.73;;;2.00;;
291;SDS011;23311;48.776;9.162;2022-10-17T13:18:19;5.83;;;2.20;;
291;SDS011;23311;48.776;9.162;2022-10-17T13:20:55;2.90;;;2.37;;
291;SDS011;23311;48.776;9.162;2022-10-17T13:23:27;3.97;;;2.30;;
291;SDS011;23311;48.776;9.162;2022-10-17T13:26:03;4.50;;;2.40;;
291;SDS011;23311;48.776;9.162;2022-10-17T13:28:34;3.10;;;2.40;;
291;SDS011;23311;48.776;9.162;2022-10-17T13:31:05;3.63;;;2.63;;
291;SDS011;23311;48.776;9.162;2022-10-17T13:33:34;6.50;;;3.17;;
291;SDS011;23311;48.776;9.162;2022-10-17T13:36:05;8.77;;;2.70;;
291;SDS011;23311;48.776;9.162;2022-10-17T13:38:41;4.13;;;2.73;;
291;SDS011;23311;48.776;9.162;2022-10-17T13:41:10;5.90;;;3.23;;
291;SDS011;23311;48.776;9.162;2022-10-17T13:44:02;3.17;;;1.90;;
291;SDS011;23311;48.776;9.162;2022-10-17T13:46:38;4.13;;;2.60;;
291;SDS011;23311;48.776;9.162;2022-10-17T13:49:10;2.80;;;2.37;;
291;SDS011;23311;48.776;9.162;2022-10-17T13:51:43;2.77;;;2.30;;
291;SDS011;23311;48.776;9.162;2022-10-17T13:54:17;2.97;;;2.30;;
291;SDS011;23311;48.776;9.162;2022-10-17T13:56:46;2.17;;;1.90;;
291;SDS011;23311;48.776;9.162;2022-10-17T13:59:24;3.90;;;2.20;;
291;SDS011;23311;48.776;9.162;2022-10-17T14:01:54;5.03;;;2.53;;
291;SDS011;23311;48.776;9.162;2022-10-17T14:04:23;2.80;;;2.00;;
291;SDS011;23311;48.776;9.162;2022-10-17T14:06:51;5.10;;;2.30;;
291;SDS011;23311;48.776;9.162;2022-10-17T14:09:20;5.00;;;2.00;;
291;SDS011;23311;48.776;9.162;2022-10-17T14:11:57;3.37;;;2.10;;
291;SDS011;23311;48.776;9.162;2022-10-17T14:14:28;3.13;;;2.07;;
291;SDS011;23311;48.776;9.162;2022-10-17T14:17:20;3.17;;;2.30;;
291;SDS011;23311;48.776;9.162;2022-10-17T14:19:50;7.47;;;2.00;;
291;SDS011;23311;48.776;9.162;2022-10-17T14:22:40;3.37;;;1.90;;
291;SDS011;23311;48.776;9.162;2022-10-17T14:25:26;3.17;;;2.20;;
291;SDS011;23311;48.776;9.162;2022-10-17T14:27:59;3.10;;;1.73;;
291;SDS011;23311;48.776;9.162;2022-10-17T14:30:35;2.33;;;1.87;;
291;SDS011;23311;48.776;9.162;2022-10-17T14:33:25;3.27;;;1.83;;
291;SDS011;23311;48.776;9.162;2022-10-17T14:35:56;5.17;;;2.20;;
291;SDS011;23311;48.776;9.162;2022-10-17T14:38:26;3.10;;;2.10;;
291;SDS011;23311;48.776;9.162;2022-10-17T14:40:57;3.90;;;2.30;;
291;SDS011;23311;48.776;9.162;2022-10-17T14:43:51;1.90;;;1.80;;
291;SDS011;23311;48.776;9.162;2022-10-17T14:46:22;2.67;;;2.13;;
291;SDS011;23311;48.776;9.162;2022-10-17T14:48:51;3.10;;;2.20;;
291;SDS011;23311;48.776;9.162;2022-10-17T14:51:21;3.90;;;2.03;;
291;SDS011;23311;48.776;9.162;2022-10-17T14:54:00;4.80;;;1.90;;
291;SDS011;23311;48.776;9.162;2022-10-17T14:56:38;3.23;;;2.10;;
291;SDS011;23311;48.776;9.162;2022-10-17T14:59:08;4.00;;;2.00;;
291;SDS011;23311;48.776;9.162;2022-10-17T15:01:44;3.80;;;2.47;;
291;SDS011;23311;48.776;9.162;2022-10-17T15:04:12;4.13;;;1.80;;
291;SDS011;23311;48.776;9.162;2022-10-17T15:06:41;3.90;;;2.13;;
291;SDS011;23311;48.776;9.162;2022-10-17T15:09:09;3.57;;;2.00;;
291;SDS011;23311;48.776;9.162;2022-10-17T15:11:38;3.30;;;2.17;;
291;SDS011;23311;48.776;9.162;2022-10-17T15:14:06;4.20;;;2.30;;
291;SDS011;23311;48.776;9.162;2022-10-17T15:16:34;3.20;;;1.97;;
291;SDS011;23311;48.776;9.162;2022-10-17T15:19:05;1.93;;;1.77;;
291;SDS011;23311;48.776;9.162;2022-10-17T15:21:33;2.17;;;2.07;;
291;SDS011;23311;48.776;9.162;2022-10-17T15:24:08;4.10;;;3.87;;
291;SDS011;23311;48.776;9.162;2022-10-17T15:26:36;4.90;;;2.03;;
291;SDS011;23311;48.776;9.162;2022-10-17T15:29:04;5.40;;;2.17;;
291;SDS011;23311;48.776;9.162;2022-10-17T15:31:32;5.73;;;2.20;;
291;SDS011;23311;48.776;9.162;2022-10-17T15:34:01;4.03;;;2.57;;
291;SDS011;23311;48.776;9.162;2022-10-17T15:36:31;3.00;;;2.33;;
291;SDS011;23311;48.776;9.162;2022-10-17T15:39:03;3.33;;;2.53;;
291;SDS011;23311;48.776;9.162;2022-10-17T15:41:31;2.47;;;2.00;;
291;SDS011;23311;48.776;9.162;2022-10-17T15:44:00;4.07;;;2.30;;
291;SDS011;23311;48.776;9.162;2022-10-17T15:46:28;4.47;;;2.60;;
291;SDS011;23311;48.776;9.162;2022-10-17T15:49:00;3.80;;;3.20;;
291;SDS011;23311;48.776;9.162;2022-10-17T15:51:30;5.90;;;4.20;;
291;SDS011;23311;48.776;9.162;2022-10-17T15:53:58;4.90;;;4.40;;
291;SDS011;23311;48.776;9.162;2022-10-17T15:56:27;4.93;;;3.50;;
291;SDS011;23311;48.776;9.162;2022-10-17T15:58:57;5.83;;;3.47;;
291;SDS011;23311;48.776;9.162;2022-10-17T16:01:26;6.07;;;3.33;;